KXSA Airport (Tappahannock-Essex County) Information

FAA: XSA - ICAO: KXSA

KXSA Airport Location

State Virginia
County Essex
City Tappahannock
KXSA Airport is 5 miles south of Tappahannock, VA.
Latitude 37-51-34.6000N
Longitude 076-53-38.8000W
Elevation 135ft

KXSA Airport METARs

METAR KXSA 071915Z AUTO 21006KT 10SM OVC006 16/16 A3015 RMK AO2 T01580158
Altimeter 30.15"
Temperature 15.8°C (60.4°F)
Wind 210° at 6KT
Clouds overcast at 600ft
Visibility 10.0mi
Time observed: 2022-12-07T19:15:00Z

KXSA Airport Details

Status Operational
Activation August 2007
Ownership Public
Usage Public
Chart WASHINGTON
ATC on-site No
Beacon schedule N/A
Beacon color clear green

KXSA Airport Contacts

Owner ESSEX COUNTY ARPT AUTH
Owner address 1450 AVIATION ROAD, TAPPAHANNOCK, VA 22560
Owner phone 804-443-5885
Manager N/A
Manager address N/A, N/A
Manager phone N/A

KXSA Airport (Tappahannock-Essex County) Radio Frequencies

KXSA (Airport) Radio Frequencies

UNICOM 122.8
Common traffic advisory frequency (CTAF) 122.8